sensor_id;sensor_type;location;lat;lon;timestamp;P1;durP1;ratioP1;P2;durP2;ratioP2
16600;SDS011;34891;48.164;11.572;2023-06-22T00:03:31;6.45;;;2.42;;
16600;SDS011;34891;48.164;11.572;2023-06-22T00:08:35;7.20;;;2.83;;
16600;SDS011;34891;48.164;11.572;2023-06-22T00:13:38;8.10;;;2.88;;
16600;SDS011;34891;48.164;11.572;2023-06-22T00:18:41;8.38;;;2.55;;
16600;SDS011;34891;48.164;11.572;2023-06-22T00:23:49;7.93;;;2.65;;
16600;SDS011;34891;48.164;11.572;2023-06-22T00:28:52;8.60;;;3.15;;
16600;SDS011;34891;48.164;11.572;2023-06-22T00:33:55;7.97;;;2.80;;
16600;SDS011;34891;48.164;11.572;2023-06-22T00:38:59;10.75;;;3.53;;
16600;SDS011;34891;48.164;11.572;2023-06-22T00:44:02;8.65;;;2.85;;
16600;SDS011;34891;48.164;11.572;2023-06-22T00:49:05;5.90;;;2.85;;
16600;SDS011;34891;48.164;11.572;2023-06-22T00:54:10;9.25;;;2.92;;
16600;SDS011;34891;48.164;11.572;2023-06-22T00:59:15;7.55;;;2.72;;
16600;SDS011;34891;48.164;11.572;2023-06-22T01:04:18;8.55;;;2.70;;
16600;SDS011;34891;48.164;11.572;2023-06-22T01:09:29;9.05;;;3.40;;
16600;SDS011;34891;48.164;11.572;2023-06-22T01:14:35;6.60;;;2.78;;
16600;SDS011;34891;48.164;11.572;2023-06-22T01:19:41;6.22;;;2.83;;
16600;SDS011;34891;48.164;11.572;2023-06-22T01:24:51;6.10;;;2.63;;
16600;SDS011;34891;48.164;11.572;2023-06-22T01:29:59;6.35;;;2.70;;
16600;SDS011;34891;48.164;11.572;2023-06-22T01:35:04;9.55;;;3.30;;
16600;SDS011;34891;48.164;11.572;2023-06-22T01:40:08;13.45;;;3.55;;
16600;SDS011;34891;48.164;11.572;2023-06-22T01:50:15;6.88;;;2.60;;
16600;SDS011;34891;48.164;11.572;2023-06-22T01:55:18;8.43;;;2.90;;
16600;SDS011;34891;48.164;11.572;2023-06-22T02:00:21;8.47;;;2.97;;
16600;SDS011;34891;48.164;11.572;2023-06-22T02:05:26;5.25;;;2.80;;
16600;SDS011;34891;48.164;11.572;2023-06-22T02:10:31;6.15;;;2.97;;
16600;SDS011;34891;48.164;11.572;2023-06-22T02:15:35;6.65;;;3.40;;
16600;SDS011;34891;48.164;11.572;2023-06-22T02:20:40;7.85;;;2.97;;
16600;SDS011;34891;48.164;11.572;2023-06-22T02:25:42;9.27;;;3.17;;
16600;SDS011;34891;48.164;11.572;2023-06-22T02:30:45;10.35;;;3.03;;
16600;SDS011;34891;48.164;11.572;2023-06-22T02:35:49;8.63;;;3.30;;
16600;SDS011;34891;48.164;11.572;2023-06-22T02:40:52;8.35;;;3.35;;
16600;SDS011;34891;48.164;11.572;2023-06-22T02:45:55;6.57;;;3.40;;
16600;SDS011;34891;48.164;11.572;2023-06-22T02:50:59;9.52;;;3.28;;
16600;SDS011;34891;48.164;11.572;2023-06-22T02:56:01;6.95;;;3.05;;
16600;SDS011;34891;48.164;11.572;2023-06-22T03:01:06;8.88;;;3.75;;
16600;SDS011;34891;48.164;11.572;2023-06-22T03:06:10;8.93;;;3.45;;
16600;SDS011;34891;48.164;11.572;2023-06-22T03:11:15;8.60;;;2.83;;
16600;SDS011;34891;48.164;11.572;2023-06-22T03:16:18;7.47;;;3.00;;
16600;SDS011;34891;48.164;11.572;2023-06-22T03:21:26;7.88;;;2.90;;
16600;SDS011;34891;48.164;11.572;2023-06-22T03:26:29;9.52;;;3.08;;
16600;SDS011;34891;48.164;11.572;2023-06-22T03:31:32;10.60;;;3.63;;
16600;SDS011;34891;48.164;11.572;2023-06-22T03:36:36;9.93;;;3.35;;
16600;SDS011;34891;48.164;11.572;2023-06-22T03:41:38;9.27;;;3.33;;
16600;SDS011;34891;48.164;11.572;2023-06-22T03:46:41;10.68;;;4.60;;
16600;SDS011;34891;48.164;11.572;2023-06-22T03:51:45;10.68;;;3.63;;
16600;SDS011;34891;48.164;11.572;2023-06-22T03:56:47;6.95;;;3.22;;
16600;SDS011;34891;48.164;11.572;2023-06-22T04:01:50;10.10;;;3.37;;
16600;SDS011;34891;48.164;11.572;2023-06-22T04:06:54;8.07;;;3.78;;
16600;SDS011;34891;48.164;11.572;2023-06-22T04:11:56;7.80;;;3.85;;
16600;SDS011;34891;48.164;11.572;2023-06-22T04:16:59;8.13;;;3.53;;
16600;SDS011;34891;48.164;11.572;2023-06-22T04:22:03;11.75;;;3.60;;
16600;SDS011;34891;48.164;11.572;2023-06-22T04:27:08;10.55;;;3.53;;
16600;SDS011;34891;48.164;11.572;2023-06-22T04:32:10;10.97;;;4.00;;
16600;SDS011;34891;48.164;11.572;2023-06-22T04:37:15;9.00;;;3.20;;
16600;SDS011;34891;48.164;11.572;2023-06-22T04:42:18;9.15;;;3.40;;
16600;SDS011;34891;48.164;11.572;2023-06-22T04:47:21;9.90;;;3.60;;
16600;SDS011;34891;48.164;11.572;2023-06-22T04:52:25;8.63;;;3.63;;
16600;SDS011;34891;48.164;11.572;2023-06-22T04:57:27;12.65;;;4.53;;
16600;SDS011;34891;48.164;11.572;2023-06-22T05:02:33;11.50;;;4.05;;
16600;SDS011;34891;48.164;11.572;2023-06-22T05:07:37;7.10;;;3.30;;
16600;SDS011;34891;48.164;11.572;2023-06-22T05:12:41;8.77;;;3.42;;
16600;SDS011;34891;48.164;11.572;2023-06-22T05:17:44;12.55;;;4.25;;
16600;SDS011;34891;48.164;11.572;2023-06-22T05:22:48;9.98;;;3.95;;
16600;SDS011;34891;48.164;11.572;2023-06-22T05:27:51;9.07;;;3.80;;
16600;SDS011;34891;48.164;11.572;2023-06-22T05:32:53;13.77;;;4.38;;
16600;SDS011;34891;48.164;11.572;2023-06-22T05:37:58;10.18;;;3.15;;
16600;SDS011;34891;48.164;11.572;2023-06-22T05:43:00;10.60;;;4.05;;
16600;SDS011;34891;48.164;11.572;2023-06-22T05:48:03;11.43;;;4.40;;
16600;SDS011;34891;48.164;11.572;2023-06-22T05:53:08;10.77;;;4.18;;
16600;SDS011;34891;48.164;11.572;2023-06-22T05:58:11;11.60;;;4.18;;
16600;SDS011;34891;48.164;11.572;2023-06-22T06:03:14;8.70;;;4.18;;
16600;SDS011;34891;48.164;11.572;2023-06-22T06:08:20;12.45;;;4.50;;
16600;SDS011;34891;48.164;11.572;2023-06-22T06:13:22;12.57;;;4.50;;
16600;SDS011;34891;48.164;11.572;2023-06-22T06:18:25;12.70;;;4.72;;
16600;SDS011;34891;48.164;11.572;2023-06-22T06:23:29;8.25;;;4.30;;
16600;SDS011;34891;48.164;11.572;2023-06-22T06:28:32;11.90;;;5.10;;
16600;SDS011;34891;48.164;11.572;2023-06-22T06:33:34;10.80;;;4.45;;
16600;SDS011;34891;48.164;11.572;2023-06-22T06:43:41;8.03;;;4.23;;
16600;SDS011;34891;48.164;11.572;2023-06-22T06:48:45;11.02;;;4.82;;
16600;SDS011;34891;48.164;11.572;2023-06-22T06:53:47;12.55;;;4.75;;
16600;SDS011;34891;48.164;11.572;2023-06-22T06:58:51;12.48;;;4.70;;
16600;SDS011;34891;48.164;11.572;2023-06-22T07:03:54;14.07;;;5.28;;
16600;SDS011;34891;48.164;11.572;2023-06-22T07:08:57;15.80;;;4.68;;
16600;SDS011;34891;48.164;11.572;2023-06-22T07:14:01;15.45;;;4.43;;
16600;SDS011;34891;48.164;11.572;2023-06-22T07:19:04;13.48;;;5.55;;
16600;SDS011;34891;48.164;11.572;2023-06-22T07:24:10;15.57;;;5.63;;
16600;SDS011;34891;48.164;11.572;2023-06-22T07:34:17;16.00;;;5.10;;
16600;SDS011;34891;48.164;11.572;2023-06-22T07:39:19;13.40;;;4.85;;
16600;SDS011;34891;48.164;11.572;2023-06-22T07:44:26;19.02;;;5.70;;
16600;SDS011;34891;48.164;11.572;2023-06-22T07:49:30;14.40;;;5.25;;
16600;SDS011;34891;48.164;11.572;2023-06-22T07:54:33;12.57;;;4.80;;
16600;SDS011;34891;48.164;11.572;2023-06-22T07:59:36;15.27;;;5.35;;
16600;SDS011;34891;48.164;11.572;2023-06-22T08:04:40;12.52;;;5.47;;
16600;SDS011;34891;48.164;11.572;2023-06-22T08:09:46;11.23;;;5.03;;
16600;SDS011;34891;48.164;11.572;2023-06-22T08:14:48;12.32;;;4.53;;
16600;SDS011;34891;48.164;11.572;2023-06-22T08:19:52;11.18;;;5.40;;
16600;SDS011;34891;48.164;11.572;2023-06-22T08:24:55;13.20;;;5.13;;
16600;SDS011;34891;48.164;11.572;2023-06-22T08:29:58;14.18;;;5.15;;
16600;SDS011;34891;48.164;11.572;2023-06-22T08:35:02;11.52;;;5.32;;
16600;SDS011;34891;48.164;11.572;2023-06-22T08:40:07;14.30;;;5.80;;
16600;SDS011;34891;48.164;11.572;2023-06-22T08:45:11;11.95;;;5.15;;
16600;SDS011;34891;48.164;11.572;2023-06-22T08:50:15;12.80;;;5.88;;
16600;SDS011;34891;48.164;11.572;2023-06-22T08:55:18;13.93;;;5.75;;
16600;SDS011;34891;48.164;11.572;2023-06-22T09:00:21;15.60;;;5.78;;
16600;SDS011;34891;48.164;11.572;2023-06-22T09:05:25;11.43;;;5.60;;
16600;SDS011;34891;48.164;11.572;2023-06-22T09:10:28;13.70;;;4.95;;
16600;SDS011;34891;48.164;11.572;2023-06-22T09:15:32;13.90;;;5.88;;
16600;SDS011;34891;48.164;11.572;2023-06-22T09:20:37;10.85;;;5.65;;
16600;SDS011;34891;48.164;11.572;2023-06-22T09:25:40;13.95;;;5.80;;
16600;SDS011;34891;48.164;11.572;2023-06-22T09:30:43;13.10;;;6.10;;
16600;SDS011;34891;48.164;11.572;2023-06-22T09:35:48;14.35;;;5.68;;
16600;SDS011;34891;48.164;11.572;2023-06-22T09:40:52;14.50;;;5.72;;
16600;SDS011;34891;48.164;11.572;2023-06-22T09:45:55;10.90;;;5.60;;
16600;SDS011;34891;48.164;11.572;2023-06-22T09:50:59;14.77;;;6.32;;
16600;SDS011;34891;48.164;11.572;2023-06-22T09:56:02;10.88;;;6.03;;
16600;SDS011;34891;48.164;11.572;2023-06-22T10:01:04;13.50;;;5.55;;
16600;SDS011;34891;48.164;11.572;2023-06-22T10:06:08;10.88;;;5.47;;
16600;SDS011;34891;48.164;11.572;2023-06-22T10:11:11;13.75;;;5.82;;
16600;SDS011;34891;48.164;11.572;2023-06-22T10:16:13;11.43;;;6.13;;
16600;SDS011;34891;48.164;11.572;2023-06-22T10:21:17;17.67;;;6.53;;
16600;SDS011;34891;48.164;11.572;2023-06-22T10:26:20;12.98;;;6.13;;
16600;SDS011;34891;48.164;11.572;2023-06-22T10:31:23;15.32;;;5.93;;
16600;SDS011;34891;48.164;11.572;2023-06-22T10:36:27;14.25;;;6.30;;
16600;SDS011;34891;48.164;11.572;2023-06-22T10:41:29;12.35;;;6.32;;
16600;SDS011;34891;48.164;11.572;2023-06-22T10:46:32;16.15;;;6.30;;
16600;SDS011;34891;48.164;11.572;2023-06-22T10:51:36;13.10;;;6.38;;
16600;SDS011;34891;48.164;11.572;2023-06-22T10:56:38;11.93;;;6.07;;
16600;SDS011;34891;48.164;11.572;2023-06-22T11:01:42;12.85;;;6.43;;
16600;SDS011;34891;48.164;11.572;2023-06-22T11:06:46;17.23;;;5.88;;
16600;SDS011;34891;48.164;11.572;2023-06-22T11:11:48;15.00;;;5.97;;
16600;SDS011;34891;48.164;11.572;2023-06-22T11:16:51;12.82;;;5.65;;
16600;SDS011;34891;48.164;11.572;2023-06-22T11:21:55;13.43;;;5.97;;
16600;SDS011;34891;48.164;11.572;2023-06-22T11:26:58;13.63;;;5.60;;
16600;SDS011;34891;48.164;11.572;2023-06-22T11:32:01;19.27;;;6.05;;
16600;SDS011;34891;48.164;11.572;2023-06-22T11:37:06;20.05;;;6.35;;
16600;SDS011;34891;48.164;11.572;2023-06-22T11:42:08;11.20;;;5.93;;
16600;SDS011;34891;48.164;11.572;2023-06-22T11:47:11;14.95;;;6.22;;
16600;SDS011;34891;48.164;11.572;2023-06-22T11:52:15;22.17;;;7.13;;
16600;SDS011;34891;48.164;11.572;2023-06-22T11:57:19;12.85;;;6.60;;
16600;SDS011;34891;48.164;11.572;2023-06-22T12:02:22;17.02;;;6.13;;
16600;SDS011;34891;48.164;11.572;2023-06-22T12:07:26;16.77;;;5.95;;
16600;SDS011;34891;48.164;11.572;2023-06-22T12:12:29;17.33;;;6.68;;
16600;SDS011;34891;48.164;11.572;2023-06-22T12:17:31;13.02;;;6.18;;
16600;SDS011;34891;48.164;11.572;2023-06-22T12:22:35;21.27;;;7.10;;
16600;SDS011;34891;48.164;11.572;2023-06-22T12:27:40;18.52;;;6.57;;
16600;SDS011;34891;48.164;11.572;2023-06-22T12:32:42;9.48;;;5.20;;
16600;SDS011;34891;48.164;11.572;2023-06-22T12:37:46;18.08;;;5.97;;
16600;SDS011;34891;48.164;11.572;2023-06-22T12:42:49;16.45;;;5.30;;
16600;SDS011;34891;48.164;11.572;2023-06-22T12:47:51;15.00;;;6.18;;
16600;SDS011;34891;48.164;11.572;2023-06-22T12:52:56;18.40;;;6.22;;
16600;SDS011;34891;48.164;11.572;2023-06-22T12:57:59;14.57;;;6.03;;
16600;SDS011;34891;48.164;11.572;2023-06-22T13:03:01;15.55;;;5.88;;
16600;SDS011;34891;48.164;11.572;2023-06-22T13:08:06;12.65;;;6.28;;
16600;SDS011;34891;48.164;11.572;2023-06-22T13:13:13;20.42;;;6.18;;
16600;SDS011;34891;48.164;11.572;2023-06-22T13:18:15;14.82;;;5.43;;
16600;SDS011;34891;48.164;11.572;2023-06-22T13:23:19;16.17;;;5.78;;
16600;SDS011;34891;48.164;11.572;2023-06-22T13:28:22;15.18;;;5.07;;
16600;SDS011;34891;48.164;11.572;2023-06-22T13:33:29;14.85;;;5.47;;
16600;SDS011;34891;48.164;11.572;2023-06-22T13:38:34;17.27;;;5.82;;
16600;SDS011;34891;48.164;11.572;2023-06-22T13:43:39;15.02;;;5.75;;
16600;SDS011;34891;48.164;11.572;2023-06-22T13:48:42;12.70;;;6.57;;
16600;SDS011;34891;48.164;11.572;2023-06-22T13:53:46;15.05;;;5.13;;
16600;SDS011;34891;48.164;11.572;2023-06-22T13:58:49;15.55;;;5.50;;
16600;SDS011;34891;48.164;11.572;2023-06-22T14:03:51;13.00;;;4.80;;
16600;SDS011;34891;48.164;11.572;2023-06-22T14:08:55;12.82;;;4.80;;
16600;SDS011;34891;48.164;11.572;2023-06-22T14:13:58;12.50;;;5.05;;
16600;SDS011;34891;48.164;11.572;2023-06-22T14:19:01;17.80;;;5.63;;
16600;SDS011;34891;48.164;11.572;2023-06-22T14:24:05;14.43;;;4.85;;
16600;SDS011;34891;48.164;11.572;2023-06-22T14:29:07;11.35;;;4.82;;
16600;SDS011;34891;48.164;11.572;2023-06-22T14:34:10;18.90;;;5.28;;
16600;SDS011;34891;48.164;11.572;2023-06-22T14:39:14;14.80;;;5.13;;
16600;SDS011;34891;48.164;11.572;2023-06-22T14:44:16;16.00;;;4.90;;
16600;SDS011;34891;48.164;11.572;2023-06-22T14:49:20;12.45;;;4.50;;
16600;SDS011;34891;48.164;11.572;2023-06-22T14:54:30;19.90;;;5.03;;
16600;SDS011;34891;48.164;11.572;2023-06-22T14:59:32;15.85;;;4.38;;
16600;SDS011;34891;48.164;11.572;2023-06-22T15:04:35;15.95;;;4.75;;
16600;SDS011;34891;48.164;11.572;2023-06-22T15:09:39;12.38;;;4.80;;
16600;SDS011;34891;48.164;11.572;2023-06-22T15:14:44;11.60;;;4.70;;
16600;SDS011;34891;48.164;11.572;2023-06-22T15:19:47;13.65;;;4.85;;
16600;SDS011;34891;48.164;11.572;2023-06-22T15:24:51;13.48;;;4.45;;
16600;SDS011;34891;48.164;11.572;2023-06-22T15:29:54;11.23;;;4.43;;
16600;SDS011;34891;48.164;11.572;2023-06-22T15:34:58;14.55;;;3.85;;
16600;SDS011;34891;48.164;11.572;2023-06-22T15:40:02;13.90;;;4.95;;
16600;SDS011;34891;48.164;11.572;2023-06-22T15:45:05;19.25;;;5.60;;
16600;SDS011;34891;48.164;11.572;2023-06-22T15:50:08;10.75;;;4.75;;
16600;SDS011;34891;48.164;11.572;2023-06-22T15:55:13;14.10;;;4.47;;
16600;SDS011;34891;48.164;11.572;2023-06-22T16:00:16;12.30;;;4.20;;
16600;SDS011;34891;48.164;11.572;2023-06-22T16:05:19;12.85;;;4.35;;
16600;SDS011;34891;48.164;11.572;2023-06-22T16:10:23;12.25;;;4.45;;
16600;SDS011;34891;48.164;11.572;2023-06-22T16:15:26;11.75;;;4.00;;
16600;SDS011;34891;48.164;11.572;2023-06-22T16:20:30;12.10;;;5.50;;
16600;SDS011;34891;48.164;11.572;2023-06-22T16:25:34;11.52;;;4.00;;
16600;SDS011;34891;48.164;11.572;2023-06-22T16:30:37;12.15;;;4.18;;
16600;SDS011;34891;48.164;11.572;2023-06-22T16:35:40;18.63;;;4.97;;
16600;SDS011;34891;48.164;11.572;2023-06-22T16:40:44;13.50;;;3.70;;
16600;SDS011;34891;48.164;11.572;2023-06-22T16:45:47;14.25;;;4.60;;
16600;SDS011;34891;48.164;11.572;2023-06-22T16:50:49;9.95;;;4.20;;
16600;SDS011;34891;48.164;11.572;2023-06-22T16:55:54;13.30;;;4.40;;
16600;SDS011;34891;48.164;11.572;2023-06-22T17:00:56;14.25;;;4.60;;
16600;SDS011;34891;48.164;11.572;2023-06-22T17:06:00;16.13;;;4.40;;
16600;SDS011;34891;48.164;11.572;2023-06-22T17:11:05;16.23;;;5.47;;
16600;SDS011;34891;48.164;11.572;2023-06-22T17:16:10;20.05;;;5.07;;
16600;SDS011;34891;48.164;11.572;2023-06-22T17:21:12;21.70;;;5.22;;
16600;SDS011;34891;48.164;11.572;2023-06-22T17:26:16;22.52;;;5.05;;
16600;SDS011;34891;48.164;11.572;2023-06-22T17:31:19;13.82;;;5.28;;
16600;SDS011;34891;48.164;11.572;2023-06-22T17:36:23;14.00;;;4.53;;
16600;SDS011;34891;48.164;11.572;2023-06-22T17:41:32;16.13;;;3.78;;
16600;SDS011;34891;48.164;11.572;2023-06-22T17:46:35;15.30;;;3.78;;
16600;SDS011;34891;48.164;11.572;2023-06-22T17:51:38;18.25;;;4.20;;
16600;SDS011;34891;48.164;11.572;2023-06-22T17:56:42;12.73;;;3.00;;
16600;SDS011;34891;48.164;11.572;2023-06-22T18:01:49;5.70;;;2.00;;
16600;SDS011;34891;48.164;11.572;2023-06-22T18:06:52;13.48;;;3.85;;
16600;SDS011;34891;48.164;11.572;2023-06-22T18:11:57;11.75;;;2.78;;
16600;SDS011;34891;48.164;11.572;2023-06-22T18:17:02;15.25;;;3.50;;
16600;SDS011;34891;48.164;11.572;2023-06-22T18:22:05;8.60;;;2.85;;
16600;SDS011;34891;48.164;11.572;2023-06-22T18:27:09;9.50;;;2.63;;
16600;SDS011;34891;48.164;11.572;2023-06-22T18:32:12;11.57;;;2.50;;
16600;SDS011;34891;48.164;11.572;2023-06-22T18:37:15;5.40;;;1.65;;
16600;SDS011;34891;48.164;11.572;2023-06-22T18:47:28;9.30;;;2.47;;
16600;SDS011;34891;48.164;11.572;2023-06-22T18:52:31;20.42;;;4.38;;
16600;SDS011;34891;48.164;11.572;2023-06-22T18:57:34;14.80;;;3.08;;
16600;SDS011;34891;48.164;11.572;2023-06-22T19:02:43;10.50;;;3.45;;
16600;SDS011;34891;48.164;11.572;2023-06-22T19:07:58;11.98;;;4.18;;
16600;SDS011;34891;48.164;11.572;2023-06-22T19:18:20;11.65;;;4.38;;
16600;SDS011;34891;48.164;11.572;2023-06-22T19:23:23;17.23;;;4.68;;
16600;SDS011;34891;48.164;11.572;2023-06-22T19:28:27;16.80;;;4.40;;
16600;SDS011;34891;48.164;11.572;2023-06-22T19:33:31;11.45;;;3.58;;
16600;SDS011;34891;48.164;11.572;2023-06-22T19:38:34;6.57;;;2.38;;
16600;SDS011;34891;48.164;11.572;2023-06-22T19:43:40;14.15;;;3.97;;
16600;SDS011;34891;48.164;11.572;2023-06-22T19:48:44;11.57;;;4.43;;
16600;SDS011;34891;48.164;11.572;2023-06-22T19:53:47;12.48;;;4.43;;
16600;SDS011;34891;48.164;11.572;2023-06-22T19:58:50;13.65;;;4.57;;
16600;SDS011;34891;48.164;11.572;2023-06-22T20:03:55;9.90;;;3.53;;
16600;SDS011;34891;48.164;11.572;2023-06-22T20:08:59;9.82;;;3.35;;
16600;SDS011;34891;48.164;11.572;2023-06-22T20:14:06;14.35;;;4.22;;
16600;SDS011;34891;48.164;11.572;2023-06-22T20:19:10;11.00;;;4.35;;
16600;SDS011;34891;48.164;11.572;2023-06-22T20:24:14;13.38;;;4.60;;
16600;SDS011;34891;48.164;11.572;2023-06-22T20:29:23;13.52;;;4.93;;
16600;SDS011;34891;48.164;11.572;2023-06-22T20:34:27;11.95;;;4.80;;
16600;SDS011;34891;48.164;11.572;2023-06-22T20:39:34;16.13;;;5.60;;
16600;SDS011;34891;48.164;11.572;2023-06-22T20:44:37;9.27;;;3.60;;
16600;SDS011;34891;48.164;11.572;2023-06-22T20:49:42;15.13;;;4.63;;
16600;SDS011;34891;48.164;11.572;2023-06-22T20:54:45;17.48;;;4.93;;
16600;SDS011;34891;48.164;11.572;2023-06-22T20:59:48;15.27;;;4.35;;
16600;SDS011;34891;48.164;11.572;2023-06-22T21:04:53;10.18;;;4.65;;
16600;SDS011;34891;48.164;11.572;2023-06-22T21:09:58;11.30;;;4.70;;
16600;SDS011;34891;48.164;11.572;2023-06-22T21:15:02;11.32;;;4.18;;
16600;SDS011;34891;48.164;11.572;2023-06-22T21:20:08;14.05;;;4.22;;
16600;SDS011;34891;48.164;11.572;2023-06-22T21:25:13;11.43;;;3.92;;
16600;SDS011;34891;48.164;11.572;2023-06-22T21:30:17;14.93;;;4.18;;
16600;SDS011;34891;48.164;11.572;2023-06-22T21:35:23;11.60;;;4.30;;
16600;SDS011;34891;48.164;11.572;2023-06-22T21:40:26;10.13;;;4.10;;
16600;SDS011;34891;48.164;11.572;2023-06-22T21:45:30;13.27;;;4.20;;
16600;SDS011;34891;48.164;11.572;2023-06-22T21:55:39;10.65;;;3.78;;
16600;SDS011;34891;48.164;11.572;2023-06-22T22:00:42;11.20;;;4.10;;
16600;SDS011;34891;48.164;11.572;2023-06-22T22:05:44;14.05;;;3.47;;
16600;SDS011;34891;48.164;11.572;2023-06-22T22:10:48;14.13;;;4.32;;
16600;SDS011;34891;48.164;11.572;2023-06-22T22:15:51;9.65;;;4.18;;
16600;SDS011;34891;48.164;11.572;2023-06-22T22:20:55;10.48;;;3.58;;
16600;SDS011;34891;48.164;11.572;2023-06-22T22:25:59;13.70;;;3.75;;
16600;SDS011;34891;48.164;11.572;2023-06-22T22:31:01;10.10;;;3.83;;
16600;SDS011;34891;48.164;11.572;2023-06-22T22:36:05;11.20;;;3.70;;
16600;SDS011;34891;48.164;11.572;2023-06-22T22:41:09;7.07;;;3.17;;
16600;SDS011;34891;48.164;11.572;2023-06-22T22:46:12;6.95;;;2.35;;
16600;SDS011;34891;48.164;11.572;2023-06-22T22:51:15;5.63;;;2.92;;
16600;SDS011;34891;48.164;11.572;2023-06-22T22:56:24;4.88;;;2.55;;
16600;SDS011;34891;48.164;11.572;2023-06-22T23:01:27;10.10;;;2.50;;
16600;SDS011;34891;48.164;11.572;2023-06-22T23:06:30;8.73;;;2.80;;
16600;SDS011;34891;48.164;11.572;2023-06-22T23:11:34;8.87;;;2.70;;
16600;SDS011;34891;48.164;11.572;2023-06-22T23:16:39;5.03;;;2.45;;
16600;SDS011;34891;48.164;11.572;2023-06-22T23:21:41;5.30;;;2.20;;
16600;SDS011;34891;48.164;11.572;2023-06-22T23:26:45;6.10;;;2.23;;
16600;SDS011;34891;48.164;11.572;2023-06-22T23:31:51;6.70;;;2.05;;
16600;SDS011;34891;48.164;11.572;2023-06-22T23:36:57;5.80;;;2.40;;
16600;SDS011;34891;48.164;11.572;2023-06-22T23:42:04;3.67;;;1.40;;
16600;SDS011;34891;48.164;11.572;2023-06-22T23:47:07;6.97;;;2.17;;
16600;SDS011;34891;48.164;11.572;2023-06-22T23:52:10;6.03;;;1.98;;
16600;SDS011;34891;48.164;11.572;2023-06-22T23:57:15;6.45;;;2.05;;
